King George, Virginia
Current Conditions -  °F | °C
As of 9:35 AM on Wednesday 22 Oct 2014 (Local Time) from KEZF Reporting Station
Moderate Rain Moderate Rain  
Wind Chill: 54°   Ceiling: 1700
Heat Index: 54°   Visibility: 3mi
Dew Point: 54°   Wind: 9mph
Humidity: 100%   Direction: 320°NW
Pressure: 29.92"   Gusts: NA
Location:  38.27°N, 77.18°W
Report Text: KEZF 221335Z AUTO 32008KT 3SM RA SCT013 BKN017 OVC029 12/12 A2992 RMK AO2 P0007 T01200120
Loading
Personal Weather Stations






























Interactive Weather Map
Tropical Storm Tracking
New forecast layout! Learn more

10-Day Weather Forecast

Advertisements
Track Severe Weather on mobile